sensor_id;sensor_type;location;lat;lon;timestamp;pressure;altitude;pressure_sealevel;temperature;humidity
69524;BME280;56723;42.694;23.286;2023-01-31T07:15:15;94810.66;;;-0.56;89.67
69524;BME280;56723;42.694;23.286;2023-01-31T07:17:42;94818.38;;;-0.45;89.69
69524;BME280;56723;42.694;23.286;2023-01-31T07:20:10;94824.69;;;-0.38;89.10
69524;BME280;56723;42.694;23.286;2023-01-31T07:22:37;94826.69;;;-0.30;88.71
69524;BME280;56723;42.694;23.286;2023-01-31T07:25:04;94816.19;;;-0.25;88.42
69524;BME280;56723;42.694;23.286;2023-01-31T07:27:31;94830.34;;;-0.21;89.11
69524;BME280;56723;42.694;23.286;2023-01-31T07:58:33;94837.06;;;-0.33;92.41
69524;BME280;56723;42.694;23.286;2023-01-31T08:01:01;94844.41;;;-0.28;92.83
69524;BME280;56723;42.694;23.286;2023-01-31T08:03:46;94851.72;;;-0.24;92.66
69524;BME280;56723;42.694;23.286;2023-01-31T08:06:13;94850.47;;;-0.18;92.70
69524;BME280;56723;42.694;23.286;2023-01-31T08:08:41;94839.28;;;-0.16;93.03
69524;BME280;56723;42.694;23.286;2023-01-31T08:11:08;94832.97;;;-0.10;93.04
69524;BME280;56723;42.694;23.286;2023-01-31T08:13:35;94835.91;;;-0.04;92.72
69524;BME280;56723;42.694;23.286;2023-01-31T08:16:04;94834.66;;;0.02;92.69
69524;BME280;56723;42.694;23.286;2023-01-31T08:18:32;94833.31;;;0.09;91.59
69524;BME280;56723;42.694;23.286;2023-01-31T08:20:59;94847.31;;;0.27;90.64
69524;BME280;56723;42.694;23.286;2023-01-31T08:23:27;94828.47;;;0.54;88.89
69524;BME280;56723;42.694;23.286;2023-01-31T08:26:05;94824.72;;;0.71;87.37
69524;BME280;56723;42.694;23.286;2023-01-31T08:28:33;94813.53;;;0.95;86.45
69524;BME280;56723;42.694;23.286;2023-01-31T08:31:00;94810.09;;;1.19;84.25
69524;BME280;56723;42.694;23.286;2023-01-31T08:33:35;94823.94;;;1.38;83.41
69524;BME280;56723;42.694;23.286;2023-01-31T08:36:19;94820.69;;;1.36;82.15
69524;BME280;56723;42.694;23.286;2023-01-31T08:38:47;94817.53;;;1.33;82.33
69524;BME280;56723;42.694;23.286;2023-01-31T08:41:15;94815.22;;;1.30;82.13
69524;BME280;56723;42.694;23.286;2023-01-31T08:43:44;94813.94;;;1.24;82.33
69524;BME280;56723;42.694;23.286;2023-01-31T08:46:24;94821.50;;;1.26;82.67
69524;BME280;56723;42.694;23.286;2023-01-31T08:48:52;94821.25;;;1.29;82.54
69524;BME280;56723;42.694;23.286;2023-01-31T08:51:19;94837.50;;;1.39;82.89
69524;BME280;56723;42.694;23.286;2023-01-31T08:53:46;94832.19;;;1.64;82.44
69524;BME280;56723;42.694;23.286;2023-01-31T08:56:14;94825.81;;;1.81;80.40
69524;BME280;56723;42.694;23.286;2023-01-31T08:58:43;94821.94;;;2.09;79.02
69524;BME280;56723;42.694;23.286;2023-01-31T09:01:14;94819.38;;;2.20;77.14
69524;BME280;56723;42.694;23.286;2023-01-31T09:03:43;94829.91;;;2.38;76.49
69524;BME280;56723;42.694;23.286;2023-01-31T09:06:17;94827.47;;;2.36;75.66
69524;BME280;56723;42.694;23.286;2023-01-31T09:08:44;94818.25;;;2.45;75.31
69524;BME280;56723;42.694;23.286;2023-01-31T09:11:12;94823.25;;;2.47;74.61
69524;BME280;56723;42.694;23.286;2023-01-31T09:13:44;94819.16;;;2.55;73.71
69524;BME280;56723;42.694;23.286;2023-01-31T09:16:12;94823.34;;;2.56;74.10
69524;BME280;56723;42.694;23.286;2023-01-31T09:18:40;94817.13;;;2.70;73.67
69524;BME280;56723;42.694;23.286;2023-01-31T09:21:13;94808.06;;;2.66;72.37
69524;BME280;56723;42.694;23.286;2023-01-31T09:23:40;94824.03;;;2.79;72.22
69524;BME280;56723;42.694;23.286;2023-01-31T09:26:10;94813.81;;;2.58;73.22
69524;BME280;56723;42.694;23.286;2023-01-31T09:28:37;94812.06;;;2.59;73.92
69524;BME280;56723;42.694;23.286;2023-01-31T09:31:08;94811.69;;;2.63;73.39
69524;BME280;56723;42.694;23.286;2023-01-31T09:33:35;94799.47;;;2.88;73.21
69524;BME280;56723;42.694;23.286;2023-01-31T09:36:05;94798.22;;;2.82;71.59
69524;BME280;56723;42.694;23.286;2023-01-31T09:38:33;94793.41;;;2.68;72.02
69524;BME280;56723;42.694;23.286;2023-01-31T09:41:03;94794.06;;;2.49;72.41
69524;BME280;56723;42.694;23.286;2023-01-31T09:43:37;94795.22;;;2.56;73.48
69524;BME280;56723;42.694;23.286;2023-01-31T09:46:12;94796.91;;;2.67;73.61
69524;BME280;56723;42.694;23.286;2023-01-31T09:48:43;94792.31;;;2.50;73.77
69524;BME280;56723;42.694;23.286;2023-01-31T09:51:13;94776.69;;;2.64;72.96
69524;BME280;56723;42.694;23.286;2023-01-31T09:53:41;94772.75;;;2.81;72.19
69524;BME280;56723;42.694;23.286;2023-01-31T09:56:33;94776.66;;;2.96;72.45
69524;BME280;56723;42.694;23.286;2023-01-31T09:59:21;94781.63;;;3.18;71.83
69524;BME280;56723;42.694;23.286;2023-01-31T10:05:17;94771.72;;;3.34;70.41
69524;BME280;56723;42.694;23.286;2023-01-31T10:07:58;94773.94;;;2.97;71.62
69524;BME280;56723;42.694;23.286;2023-01-31T10:10:38;94758.91;;;3.04;71.14
69524;BME280;56723;42.694;23.286;2023-01-31T10:13:29;94768.53;;;2.91;71.78
69524;BME280;56723;42.694;23.286;2023-01-31T10:16:04;94767.03;;;3.09;71.53
69524;BME280;56723;42.694;23.286;2023-01-31T10:18:36;94760.78;;;3.02;70.59
69524;BME280;56723;42.694;23.286;2023-01-31T10:21:11;94758.16;;;3.13;70.02
69524;BME280;56723;42.694;23.286;2023-01-31T10:26:16;94750.78;;;3.50;69.04
69524;BME280;56723;42.694;23.286;2023-01-31T10:28:50;94743.50;;;3.86;67.45
69524;BME280;56723;42.694;23.286;2023-01-31T10:34:08;94744.19;;;3.88;65.26
69524;BME280;56723;42.694;23.286;2023-01-31T10:37:07;94745.50;;;3.92;65.42
69524;BME280;56723;42.694;23.286;2023-01-31T10:40:18;94736.06;;;3.82;67.49
69524;BME280;56723;42.694;23.286;2023-01-31T10:42:57;94735.56;;;3.58;68.04
69524;BME280;56723;42.694;23.286;2023-01-31T10:45:27;94737.13;;;3.70;68.61
69524;BME280;56723;42.694;23.286;2023-01-31T10:48:21;94740.97;;;4.05;65.86
69524;BME280;56723;42.694;23.286;2023-01-31T10:50:54;94735.25;;;3.92;66.03
69524;BME280;56723;42.694;23.286;2023-01-31T10:56:10;94758.63;;;3.98;64.80
69524;BME280;56723;42.694;23.286;2023-01-31T10:58:41;94722.56;;;3.90;65.35
69524;BME280;56723;42.694;23.286;2023-01-31T11:01:08;94745.63;;;3.71;66.06
69524;BME280;56723;42.694;23.286;2023-01-31T11:03:48;94743.88;;;3.41;67.51
69524;BME280;56723;42.694;23.286;2023-01-31T11:06:16;94734.28;;;3.33;67.87
69524;BME280;56723;42.694;23.286;2023-01-31T11:11:19;94758.72;;;2.75;70.98
69524;BME280;56723;42.694;23.286;2023-01-31T11:16:23;94754.88;;;2.60;72.78
69524;BME280;56723;42.694;23.286;2023-01-31T11:18:52;94752.53;;;2.57;73.27
69524;BME280;56723;42.694;23.286;2023-01-31T11:21:22;94756.63;;;2.48;73.69
69524;BME280;56723;42.694;23.286;2023-01-31T11:23:50;94766.47;;;2.32;75.21
69524;BME280;56723;42.694;23.286;2023-01-31T11:26:37;94748.13;;;2.27;75.71
69524;BME280;56723;42.694;23.286;2023-01-31T11:29:09;94762.56;;;2.17;76.14
69524;BME280;56723;42.694;23.286;2023-01-31T11:31:43;94775.22;;;2.18;76.98
69524;BME280;56723;42.694;23.286;2023-01-31T11:36:51;94776.44;;;1.92;78.54
69524;BME280;56723;42.694;23.286;2023-01-31T11:39:25;94764.63;;;1.80;79.57
69524;BME280;56723;42.694;23.286;2023-01-31T11:41:52;94770.66;;;1.67;80.15
69524;BME280;56723;42.694;23.286;2023-01-31T11:44:21;94764.63;;;1.57;81.32
69524;BME280;56723;42.694;23.286;2023-01-31T11:46:51;94767.53;;;1.53;81.86
69524;BME280;56723;42.694;23.286;2023-01-31T11:49:22;94773.94;;;1.47;83.78
69524;BME280;56723;42.694;23.286;2023-01-31T11:51:52;94772.66;;;1.42;84.02
69524;BME280;56723;42.694;23.286;2023-01-31T11:54:26;94769.75;;;1.24;83.89
69524;BME280;56723;42.694;23.286;2023-01-31T11:56:57;94773.34;;;1.21;84.41
69524;BME280;56723;42.694;23.286;2023-01-31T11:59:28;94769.50;;;1.04;84.97
69524;BME280;56723;42.694;23.286;2023-01-31T12:01:57;94773.41;;;0.97;86.37
69524;BME280;56723;42.694;23.286;2023-01-31T12:04:31;94771.88;;;0.95;87.25
69524;BME280;56723;42.694;23.286;2023-01-31T12:07:07;94770.03;;;0.97;87.32
69524;BME280;56723;42.694;23.286;2023-01-31T12:09:46;94763.53;;;0.93;87.30
69524;BME280;56723;42.694;23.286;2023-01-31T12:12:26;94767.16;;;0.90;87.27
69524;BME280;56723;42.694;23.286;2023-01-31T12:14:57;94778.81;;;0.82;87.08
69524;BME280;56723;42.694;23.286;2023-01-31T12:17:30;94772.00;;;0.82;87.28
69524;BME280;56723;42.694;23.286;2023-01-31T12:23:01;94779.84;;;0.79;86.29
69524;BME280;56723;42.694;23.286;2023-01-31T12:25:45;94771.19;;;0.82;85.86
69524;BME280;56723;42.694;23.286;2023-01-31T12:31:08;94761.09;;;0.80;85.29
69524;BME280;56723;42.694;23.286;2023-01-31T12:39:17;94762.97;;;0.89;84.65
69524;BME280;56723;42.694;23.286;2023-01-31T12:58:18;94767.38;;;0.87;84.69
69524;BME280;56723;42.694;23.286;2023-01-31T13:01:03;94767.38;;;0.87;85.00
69524;BME280;56723;42.694;23.286;2023-01-31T13:03:41;94767.25;;;0.89;85.06
69524;BME280;56723;42.694;23.286;2023-01-31T13:06:18;94760.88;;;0.94;84.77
69524;BME280;56723;42.694;23.286;2023-01-31T13:09:01;94765.16;;;0.94;85.40
69524;BME280;56723;42.694;23.286;2023-01-31T13:11:43;94763.53;;;0.93;84.92
69524;BME280;56723;42.694;23.286;2023-01-31T13:14:19;94765.97;;;0.94;86.00
69524;BME280;56723;42.694;23.286;2023-01-31T13:16:51;94767.59;;;0.95;85.56
69524;BME280;56723;42.694;23.286;2023-01-31T13:19:38;94767.28;;;1.00;83.77
69524;BME280;56723;42.694;23.286;2023-01-31T13:22:12;94775.28;;;1.07;83.80
69524;BME280;56723;42.694;23.286;2023-01-31T13:24:42;94775.06;;;1.10;83.49
69524;BME280;56723;42.694;23.286;2023-01-31T13:27:32;94773.66;;;1.06;83.34
69524;BME280;56723;42.694;23.286;2023-01-31T13:32:32;94781.31;;;1.06;82.83
69524;BME280;56723;42.694;23.286;2023-01-31T13:37:36;94781.91;;;1.09;83.17
69524;BME280;56723;42.694;23.286;2023-01-31T13:40:18;94781.00;;;1.10;82.73
69524;BME280;56723;42.694;23.286;2023-01-31T13:42:46;94766.72;;;1.08;82.99
69524;BME280;56723;42.694;23.286;2023-01-31T13:45:25;94777.38;;;1.01;83.01
69524;BME280;56723;42.694;23.286;2023-01-31T13:48:01;94785.72;;;1.03;83.12
69524;BME280;56723;42.694;23.286;2023-01-31T13:50:36;94770.41;;;1.03;82.79
69524;BME280;56723;42.694;23.286;2023-01-31T13:53:12;94765.06;;;0.95;82.58
69524;BME280;56723;42.694;23.286;2023-01-31T13:55:43;94778.50;;;0.97;82.95
69524;BME280;56723;42.694;23.286;2023-01-31T13:58:21;94780.25;;;0.97;82.50
69524;BME280;56723;42.694;23.286;2023-01-31T14:01:06;94786.75;;;1.01;82.01
69524;BME280;56723;42.694;23.286;2023-01-31T14:09:33;94792.44;;;1.04;80.34
69524;BME280;56723;42.694;23.286;2023-01-31T14:14:48;94795.00;;;1.04;79.95
69524;BME280;56723;42.694;23.286;2023-01-31T14:22:19;94799.19;;;1.06;81.58
69524;BME280;56723;42.694;23.286;2023-01-31T14:30:32;94801.25;;;1.12;80.93
69524;BME280;56723;42.694;23.286;2023-01-31T14:39:11;94801.72;;;1.06;81.46
69524;BME280;56723;42.694;23.286;2023-01-31T14:50:13;94818.88;;;1.03;81.46
69524;BME280;56723;42.694;23.286;2023-01-31T14:58:21;94834.22;;;0.80;82.52
69524;BME280;56723;42.694;23.286;2023-01-31T15:00:52;94839.44;;;0.78;83.35
69524;BME280;56723;42.694;23.286;2023-01-31T15:03:26;94844.88;;;0.74;84.12
69524;BME280;56723;42.694;23.286;2023-01-31T15:06:13;94849.38;;;0.70;84.55
69524;BME280;56723;42.694;23.286;2023-01-31T15:08:49;94848.69;;;0.68;85.31
69524;BME280;56723;42.694;23.286;2023-01-31T15:11:36;94856.34;;;0.68;85.80
69524;BME280;56723;42.694;23.286;2023-01-31T15:14:40;94858.50;;;0.61;85.98
69524;BME280;56723;42.694;23.286;2023-01-31T15:17:15;94850.25;;;0.58;86.47
69524;BME280;56723;42.694;23.286;2023-01-31T15:20:16;94846.84;;;0.46;86.22
69524;BME280;56723;42.694;23.286;2023-01-31T15:22:44;94858.56;;;0.49;86.73
69524;BME280;56723;42.694;23.286;2023-01-31T15:25:33;94869.69;;;0.48;86.60
69524;BME280;56723;42.694;23.286;2023-01-31T15:28:02;94861.44;;;0.44;86.40
69524;BME280;56723;42.694;23.286;2023-01-31T15:30:31;94858.28;;;0.41;86.28
69524;BME280;56723;42.694;23.286;2023-01-31T15:33:15;94874.66;;;0.49;85.88
69524;BME280;56723;42.694;23.286;2023-01-31T15:35:57;94865.81;;;0.42;85.47
69524;BME280;56723;42.694;23.286;2023-01-31T15:43:33;94869.84;;;0.33;85.45
69524;BME280;56723;42.694;23.286;2023-01-31T15:46:26;94885.50;;;0.40;85.82
69524;BME280;56723;42.694;23.286;2023-01-31T15:48:54;94893.25;;;0.39;85.81
69524;BME280;56723;42.694;23.286;2023-01-31T15:51:21;94893.94;;;0.41;85.71
69524;BME280;56723;42.694;23.286;2023-01-31T15:54:02;94892.13;;;0.43;85.81
69524;BME280;56723;42.694;23.286;2023-01-31T15:56:35;94887.22;;;0.40;84.96
69524;BME280;56723;42.694;23.286;2023-01-31T15:59:10;94896.19;;;0.45;84.90
69524;BME280;56723;42.694;23.286;2023-01-31T16:01:38;94894.34;;;0.47;84.75
69524;BME280;56723;42.694;23.286;2023-01-31T16:04:05;94907.19;;;0.46;84.80
69524;BME280;56723;42.694;23.286;2023-01-31T16:06:34;94907.19;;;0.46;84.46
69524;BME280;56723;42.694;23.286;2023-01-31T16:09:04;94903.53;;;0.50;84.37
69524;BME280;56723;42.694;23.286;2023-01-31T16:11:33;94912.19;;;0.47;83.64
69524;BME280;56723;42.694;23.286;2023-01-31T16:14:03;94919.13;;;0.45;83.88
69524;BME280;56723;42.694;23.286;2023-01-31T16:16:33;94912.41;;;0.44;83.82
69524;BME280;56723;42.694;23.286;2023-01-31T16:19:01;94920.88;;;0.45;83.82
69524;BME280;56723;42.694;23.286;2023-01-31T16:21:40;94920.88;;;0.45;83.75
69524;BME280;56723;42.694;23.286;2023-01-31T16:24:15;94923.91;;;0.50;84.19
69524;BME280;56723;42.694;23.286;2023-01-31T16:29:47;94929.63;;;0.53;83.49
69524;BME280;56723;42.694;23.286;2023-01-31T16:32:27;94931.56;;;0.50;83.24
69524;BME280;56723;42.694;23.286;2023-01-31T16:35:06;94928.81;;;0.53;83.07
69524;BME280;56723;42.694;23.286;2023-01-31T16:37:38;94931.78;;;0.47;83.07
69524;BME280;56723;42.694;23.286;2023-01-31T16:42:43;94941.75;;;0.50;83.11
69524;BME280;56723;42.694;23.286;2023-01-31T16:45:29;94946.75;;;0.51;83.26
69524;BME280;56723;42.694;23.286;2023-01-31T16:50:53;94955.31;;;0.50;83.26
69524;BME280;56723;42.694;23.286;2023-01-31T16:56:19;94962.25;;;0.48;83.42
69524;BME280;56723;42.694;23.286;2023-01-31T16:58:53;94956.25;;;0.49;82.98
69524;BME280;56723;42.694;23.286;2023-01-31T17:01:32;94953.59;;;0.51;83.03
69524;BME280;56723;42.694;23.286;2023-01-31T17:04:18;94968.38;;;0.46;83.45
69524;BME280;56723;42.694;23.286;2023-01-31T17:07:01;94971.03;;;0.44;83.06
69524;BME280;56723;42.694;23.286;2023-01-31T17:09:29;94964.31;;;0.43;83.15
69524;BME280;56723;42.694;23.286;2023-01-31T17:11:56;94958.59;;;0.40;83.24
69524;BME280;56723;42.694;23.286;2023-01-31T17:14:23;94975.31;;;0.44;82.94
69524;BME280;56723;42.694;23.286;2023-01-31T17:16:51;94975.50;;;0.41;83.50
69524;BME280;56723;42.694;23.286;2023-01-31T17:19:19;94977.34;;;0.39;83.47
69524;BME280;56723;42.694;23.286;2023-01-31T17:21:46;94987.25;;;0.43;83.06
69524;BME280;56723;42.694;23.286;2023-01-31T17:24:18;94989.19;;;0.40;82.70
69524;BME280;56723;42.694;23.286;2023-01-31T17:26:45;94975.72;;;0.38;82.76
69524;BME280;56723;42.694;23.286;2023-01-31T17:29:12;94980.72;;;0.39;83.21
69524;BME280;56723;42.694;23.286;2023-01-31T17:31:39;94985.00;;;0.39;83.04
69524;BME280;56723;42.694;23.286;2023-01-31T17:34:14;94983.25;;;0.39;82.82
69524;BME280;56723;42.694;23.286;2023-01-31T17:36:42;94985.91;;;0.38;82.54
69524;BME280;56723;42.694;23.286;2023-01-31T17:39:09;94987.53;;;0.39;82.40
69524;BME280;56723;42.694;23.286;2023-01-31T17:41:37;94982.69;;;0.36;82.36
69524;BME280;56723;42.694;23.286;2023-01-31T17:44:12;94971.66;;;0.35;82.14
69524;BME280;56723;42.694;23.286;2023-01-31T17:46:40;94994.50;;;0.37;82.37
69524;BME280;56723;42.694;23.286;2023-01-31T17:49:07;94988.19;;;0.29;82.65
69524;BME280;56723;42.694;23.286;2023-01-31T17:51:34;94997.97;;;0.36;82.40
69524;BME280;56723;42.694;23.286;2023-01-31T17:54:01;94997.97;;;0.36;82.59
69524;BME280;56723;42.694;23.286;2023-01-31T17:56:28;94985.53;;;0.31;82.25
69524;BME280;56723;42.694;23.286;2023-01-31T17:58:55;95007.44;;;0.33;82.53
69524;BME280;56723;42.694;23.286;2023-01-31T18:01:22;95011.03;;;0.31;82.56
69524;BME280;56723;42.694;23.286;2023-01-31T18:03:49;94993.47;;;0.26;82.89
69524;BME280;56723;42.694;23.286;2023-01-31T18:06:16;95013.66;;;0.29;82.97
69524;BME280;56723;42.694;23.286;2023-01-31T18:08:43;95023.84;;;0.29;83.29
69524;BME280;56723;42.694;23.286;2023-01-31T18:11:13;95016.84;;;0.33;83.41
69524;BME280;56723;42.694;23.286;2023-01-31T18:13:40;94998.50;;;0.15;83.42
69524;BME280;56723;42.694;23.286;2023-01-31T18:16:14;95014.78;;;0.25;83.70
69524;BME280;56723;42.694;23.286;2023-01-31T18:18:42;95031.59;;;0.28;84.24
69524;BME280;56723;42.694;23.286;2023-01-31T18:21:20;95046.91;;;0.28;84.29
69524;BME280;56723;42.694;23.286;2023-01-31T18:23:51;95043.34;;;0.30;84.61
69524;BME280;56723;42.694;23.286;2023-01-31T18:26:19;95047.19;;;0.23;84.78
69524;BME280;56723;42.694;23.286;2023-01-31T18:28:47;95049.94;;;0.20;85.45
69524;BME280;56723;42.694;23.286;2023-01-31T18:31:15;95045.91;;;0.18;85.66
69524;BME280;56723;42.694;23.286;2023-01-31T18:33:44;95059.31;;;0.20;85.99
69524;BME280;56723;42.694;23.286;2023-01-31T18:36:17;95058.19;;;0.24;86.16
69524;BME280;56723;42.694;23.286;2023-01-31T18:38:46;95057.59;;;0.20;86.58
69524;BME280;56723;42.694;23.286;2023-01-31T18:41:15;95055.13;;;0.19;86.77
69524;BME280;56723;42.694;23.286;2023-01-31T18:43:44;95046.28;;;0.12;87.08
69524;BME280;56723;42.694;23.286;2023-01-31T18:46:12;95053.63;;;0.16;87.46
69524;BME280;56723;42.694;23.286;2023-01-31T18:48:38;95059.75;;;0.14;87.65
69524;BME280;56723;42.694;23.286;2023-01-31T18:51:09;95048.72;;;0.13;87.84
69524;BME280;56723;42.694;23.286;2023-01-31T18:53:38;95060.94;;;0.08;88.53
69524;BME280;56723;42.694;23.286;2023-01-31T18:56:08;95055.03;;;0.08;89.53
69524;BME280;56723;42.694;23.286;2023-01-31T18:58:36;95050.38;;;0.14;88.47
69524;BME280;56723;42.694;23.286;2023-01-31T19:01:24;95062.19;;;0.15;88.62
69524;BME280;56723;42.694;23.286;2023-01-31T19:03:52;95052.41;;;0.09;88.82
69524;BME280;56723;42.694;23.286;2023-01-31T19:06:21;95059.13;;;0.10;88.87
69524;BME280;56723;42.694;23.286;2023-01-31T19:08:49;95053.84;;;0.13;88.50
